Aérodrome :
LOGIN :

S'inscrire | Disclaimer

   EN    FR    IT 

 










Légende :    VFR   VFR Marginal   IFR   IFR Intensif   IFR Très Intensif
Visi : 
Plafond : 
>= 8 km
>= 3000ft
5 à 8 km
1000 à 3000 ft
1500m à 5 km
500 à 1000 ft
800 à 1500m
200 à 500 ft
< 800m
< 200 ft
Symboles :   Orages  Brouillard  Fortes neiges  Fortes précipitations  Vent > 20 kt
SIGMETs :   Divers  Orages  Givrage  Turbulence  Onde Orograph.  Cendres Volcan.






- Altitude de l'aérodrome : 1416 ft
- Code IATA : ZRH


LSZH - Zurich

DERNIER METAR :
  • 251550Z 17004KT 5000 BR OVC007 02/01 Q1021 NOSIG

METARs EXPIRÉS :
  • 251520Z VRB01KT 6000 OVC007 02/01 Q1021 NOSIG
  • 251450Z VRB01KT 6000 OVC007 02/01 Q1021 NOSIG
  • 251420Z VRB01KT 6000 OVC007 02/01 Q1021 NOSIG
  • 251350Z VRB02KT 6000 OVC007 02/01 Q1021 NOSIG
  • 251320Z VRB02KT 5000 BR FEW006 OVC007 02/01 Q1021 NOSIG

TAF TAF LSZH
Valide du 25 à 15h jusqu'au 26 à 21h UTC


251425Z 2515/2621 VRB02KT 6000 BR OVC007 TX02/2515Z TNM00/2605Z TX04/2614Z
BECMG 2517/2520 4000 BR OVC004
BECMG 2520/2523 2000
BECMG 2602/2605 1500 SCT002
PROB30 2603/2609 0700 PRFG VV002
BECMG 2609/2612 4000 BR BKN005
PROB40 2612/2618 6000 BKN006
ATIS : +41 43 816 2295 (DEP) +41 43 816 2294 (ARR)



MET'MAP, la Météo Aéronautique d'un coup d'oeil ! - Copyright ORBIFLY Décembre 2007 - Disclaimer

ORBIFLY MET'MAP TEAM :

Programmation & Développement : Alexandra Zaïnal
Sur une idée originale de : Baudouin d'Aumeries
Assistance à la programmation : Marc-Olivier Méhu
Soutien technique & logistique : Manuel Goepfert

Contact : metmap@orbifly.com




SOURCES & CREDITS :

   NOAA